Heat Index [SAI AWOS/ASOS Display]_________FAA Disclaimer: "Not for use in aviation at this time______________" Untitled Document
Potsdam Municipal/ Damon Field (PTD)
240
16:56
17/10/23
12
20
N/A
30.08
N/A
474
73(F), 23(C)
55(F), 13(C)
76 F
53%
CLR
10
N/A
N/A
N/A
16:56 Zulu Wind 240 at 12 Knots, Gusting 20 Knots, Altimeter 30.08
METAR KPTD 231656Z AUTO 24012G20KT 10SM CLR 23/13 A3008 A02
METAR:
FAA Disclaimer--Advisory Use ONLY, not for flight info-- 1/17/2017: Current fuel prices are $4.34 per gallon for 100LL, and $3.55 per gallon for Jet A. AWOS phone 315-265-6106 updated 09/18/2014
INFO:
Wind Direction:
Wind Speed:
Wind Gust:
Wind Variable:
Altimeter:
Dens Alt:
Elev:
Temp:
Dwpt:
Heat Index
Rel Humidity:
Ceiling:
Visibility:
Prsnt Wea:
PCPN:
Remarks:
How to read the WebPage